Time;durP1;ratioP1;P1;durP2;ratioP2;P2;SDS_P1;SDS_P2;PMS_P1;PMS_P2;Temp;Humidity;BMP_temperature;BMP_pressure;BME280_temperature;BME280_humidity;BME280_pressure;Samples;Min_cycle;Max_cycle;Signal;HPM_P1;HPM_P2
2023/10/10 00:00:04;;;;;;;0.50;0.50;;;;;;;;;;5059400;28;20156;-91
2023/10/10 00:02:31;;;;;;;0.40;0.40;;;;;;;;;;5059303;28;20213;-91
2023/10/10 00:04:59;;;;;;;0.43;0.43;;;;;;;;;;5042178;28;20199;-92
2023/10/10 00:07:27;;;;;;;0.53;0.53;;;;;;;;;;5059211;28;20156;-92
2023/10/10 00:09:53;;;;;;;0.50;0.50;;;;;;;;;;5059250;28;20164;-90
2023/10/10 00:12:26;;;;;;;0.50;0.50;;;;;;;;;;5058618;28;20211;-92
2023/10/10 00:14:53;;;;;;;0.57;0.57;;;;;;;;;;5058696;28;20168;-92
2023/10/10 00:17:22;;;;;;;0.50;0.50;;;;;;;;;;5026076;28;20180;-93
2023/10/10 00:20:15;;;;;;;0.40;0.40;;;;;;;;;;5034201;28;20270;-92
2023/10/10 00:22:37;;;;;;;0.50;0.50;;;;;;;;;;5033313;28;20207;-92
2023/10/10 00:25:12;;;;;;;0.50;0.50;;;;;;;;;;5033799;28;20200;-92
2023/10/10 00:27:39;;;;;;;0.50;0.50;;;;;;;;;;5033647;28;20637;-92
2023/10/10 00:30:06;;;;;;;0.50;0.50;;;;;;;;;;5033566;28;20184;-92
2023/10/10 00:32:39;;;;;;;0.50;0.50;;;;;;;;;;5033524;28;20282;-92
2023/10/10 00:35:06;;;;;;;0.50;0.50;;;;;;;;;;5033615;28;20176;-91
2023/10/10 00:37:34;;;;;;;0.60;0.60;;;;;;;;;;5015432;28;20180;-92
2023/10/10 00:40:07;;;;;;;0.70;0.70;;;;;;;;;;5033253;28;20179;-92
2023/10/10 00:42:36;;;;;;;0.50;0.50;;;;;;;;;;5015596;28;20254;-92
2023/10/10 00:45:09;;;;;;;0.53;0.53;;;;;;;;;;5015554;28;20212;-92
2023/10/10 00:47:42;;;;;;;0.60;0.60;;;;;;;;;;5015547;28;20282;-92
2023/10/10 00:50:15;;;;;;;0.50;0.50;;;;;;;;;;5033036;28;20643;-91
2023/10/10 00:52:41;;;;;;;0.60;0.60;;;;;;;;;;5015311;28;20188;-92
2023/10/10 00:55:09;;;;;;;0.50;0.50;;;;;;;;;;5033574;28;20255;-92
2023/10/10 00:57:38;;;;;;;0.40;0.40;;;;;;;;;;5033362;28;20262;-92
2023/10/10 01:00:10;;;;;;;0.50;0.50;;;;;;;;;;5032663;28;20663;-92
2023/10/10 01:02:39;;;;;;;0.40;0.40;;;;;;;;;;5033000;28;20718;-92
2023/10/10 01:05:12;;;;;;;0.50;0.50;;;;;;;;;;5033288;28;20286;-92
2023/10/10 01:07:39;;;;;;;0.50;0.50;;;;;;;;;;5033364;28;20254;-92
2023/10/10 01:10:12;;;;;;;0.60;0.60;;;;;;;;;;5033019;28;20641;-91
2023/10/10 01:12:39;;;;;;;0.50;0.50;;;;;;;;;;5033160;28;20223;-92
2023/10/10 01:15:48;;;;;;;0.40;0.40;;;;;;;;;;5033163;28;20179;-92
2023/10/10 01:17:56;;;;;;;0.50;0.50;;;;;;;;;;5027256;28;20744;-92
2023/10/10 01:20:34;;;;;;;0.50;0.50;;;;;;;;;;5015347;28;20188;-92
2023/10/10 01:23:01;;;;;;;0.50;0.50;;;;;;;;;;5032912;28;20195;-91
2023/10/10 01:28:02;;;;;;;0.50;0.50;;;;;;;;;;5033059;28;20183;-91
2023/10/10 01:33:22;;;;;;;0.50;0.50;;;;;;;;;;5013616;28;20245;-92
2023/10/10 01:35:49;;;;;;;0.50;0.50;;;;;;;;;;5015724;28;20258;-91
2023/10/10 01:38:31;;;;;;;0.60;0.60;;;;;;;;;;5033303;28;20171;-92
2023/10/10 01:40:58;;;;;;;0.60;0.60;;;;;;;;;;5034981;28;20168;-91
2023/10/10 01:43:24;;;;;;;0.60;0.60;;;;;;;;;;5035596;28;20176;-90
2023/10/10 01:46:08;;;;;;;0.57;0.57;;;;;;;;;;5039191;28;20331;-92
2023/10/10 01:48:43;;;;;;;0.60;0.60;;;;;;;;;;5034545;28;20200;-92
2023/10/10 01:51:09;;;;;;;0.60;0.60;;;;;;;;;;5033798;28;20274;-92
2023/10/10 01:53:40;;;;;;;0.60;0.60;;;;;;;;;;5034124;28;20179;-92
2023/10/10 01:56:11;;;;;;;0.60;0.60;;;;;;;;;;5035455;28;20180;-92
2023/10/10 01:58:37;;;;;;;0.70;0.70;;;;;;;;;;5021722;28;20223;-91
2023/10/10 02:01:13;;;;;;;0.60;0.60;;;;;;;;;;5038791;28;20199;-92
2023/10/10 02:03:39;;;;;;;0.50;0.50;;;;;;;;;;5037943;28;20191;-92
2023/10/10 02:06:09;;;;;;;0.50;0.50;;;;;;;;;;5018921;28;20234;-92
2023/10/10 02:08:38;;;;;;;0.60;0.60;;;;;;;;;;5037033;28;20172;-92
2023/10/10 02:11:06;;;;;;;0.57;0.57;;;;;;;;;;5036679;28;20216;-92
2023/10/10 02:13:33;;;;;;;0.53;0.53;;;;;;;;;;5037117;28;20172;-92
2023/10/10 02:16:01;;;;;;;0.60;0.60;;;;;;;;;;5037250;28;20180;-92
2023/10/10 02:18:40;;;;;;;0.70;0.70;;;;;;;;;;5037264;28;20561;-92
2023/10/10 02:21:15;;;;;;;0.60;0.60;;;;;;;;;;5037003;28;20684;-93
2023/10/10 02:23:44;;;;;;;0.70;0.70;;;;;;;;;;5037529;28;20182;-92
2023/10/10 02:31:46;;;;;;;0.60;0.60;;;;;;;;;;5036922;28;20271;-92
2023/10/10 02:34:12;;;;;;;0.60;0.60;;;;;;;;;;5036944;28;20168;-92
2023/10/10 02:36:41;;;;;;;0.67;0.67;;;;;;;;;;5020140;28;20172;-92
2023/10/10 02:41:49;;;;;;;0.60;0.60;;;;;;;;;;5042175;28;20191;-91
2023/10/10 02:45:16;;;;;;;0.60;0.60;;;;;;;;;;5059986;28;20175;-91
2023/10/10 02:47:12;;;;;;;0.57;0.57;;;;;;;;;;5051636;28;20214;-91
2023/10/10 02:49:38;;;;;;;0.60;0.60;;;;;;;;;;5060335;28;20191;-92
2023/10/10 02:52:07;;;;;;;0.60;0.60;;;;;;;;;;5039852;28;20291;-91
2023/10/10 02:54:34;;;;;;;0.60;0.60;;;;;;;;;;5041610;28;20199;-91
2023/10/10 02:59:51;;;;;;;0.60;0.60;;;;;;;;;;5040455;28;20215;-92
2023/10/10 03:02:28;;;;;;;0.60;0.60;;;;;;;;;;5037618;28;20191;-91
2023/10/10 03:07:27;;;;;;;0.60;0.60;;;;;;;;;;5035989;28;20209;-92
2023/10/10 03:10:22;;;;;;;0.60;0.60;;;;;;;;;;5019496;28;20736;-92
2023/10/10 03:13:05;;;;;;;0.50;0.50;;;;;;;;;;5018813;28;20286;-92
2023/10/10 03:15:33;;;;;;;0.50;0.50;;;;;;;;;;5036526;28;20183;-92
2023/10/10 03:25:51;;;;;;;0.67;0.67;;;;;;;;;;5036325;28;20237;-92
2023/10/10 03:28:47;;;;;;;0.50;0.50;;;;;;;;;;5035567;28;20556;-92
2023/10/10 03:33:36;;;;;;;0.60;0.60;;;;;;;;;;5034796;28;20211;-92
2023/10/10 03:36:14;;;;;;;0.60;0.60;;;;;;;;;;5017269;28;20696;-92
2023/10/10 05:25:14;;;;;;;0.60;0.60;;;;;;;;;;5037081;28;20203;-92
2023/10/10 05:27:43;;;;;;;0.60;0.60;;;;;;;;;;5039067;28;20186;-92
2023/10/10 05:30:25;;;;;;;0.63;0.63;;;;;;;;;;5021143;28;20274;-92
2023/10/10 05:33:00;;;;;;;0.50;0.50;;;;;;;;;;5037587;28;20210;-92
2023/10/10 05:35:28;;;;;;;0.70;0.70;;;;;;;;;;5041998;28;20175;-91
2023/10/10 05:37:54;;;;;;;0.70;0.70;;;;;;;;;;5035837;28;20185;-92
2023/10/10 05:40:20;;;;;;;0.73;0.73;;;;;;;;;;5036839;28;20185;-92
2023/10/10 05:42:46;;;;;;;0.60;0.60;;;;;;;;;;5020458;28;20207;-92
2023/10/10 05:45:14;;;;;;;0.60;0.60;;;;;;;;;;5019059;28;20594;-91
2023/10/10 05:47:40;;;;;;;0.60;0.60;;;;;;;;;;5032577;28;20198;-91
2023/10/10 05:50:10;;;;;;;0.60;0.60;;;;;;;;;;5034316;28;20460;-94
2023/10/10 05:52:39;;;;;;;0.60;0.60;;;;;;;;;;5050743;28;20226;-90
2023/10/10 05:55:06;;;;;;;0.63;0.63;;;;;;;;;;5037259;28;20168;-92
2023/10/10 05:57:34;;;;;;;0.60;0.60;;;;;;;;;;5039432;28;20210;-92
2023/10/10 06:00:00;;;;;;;0.60;0.60;;;;;;;;;;5039822;28;20233;-92
2023/10/10 06:02:27;;;;;;;0.60;0.60;;;;;;;;;;5021120;28;20227;-92
2023/10/10 06:04:53;;;;;;;0.50;0.50;;;;;;;;;;5027870;28;20249;-91
2023/10/10 06:07:20;;;;;;;0.53;0.53;;;;;;;;;;5052922;28;20211;-91
2023/10/10 06:09:51;;;;;;;0.60;0.60;;;;;;;;;;5048274;28;20192;-92
2023/10/10 06:12:18;;;;;;;0.60;0.60;;;;;;;;;;5042658;28;20192;-92
2023/10/10 06:14:46;;;;;;;0.70;0.70;;;;;;;;;;5040024;28;20200;-92
2023/10/10 06:17:13;;;;;;;0.63;0.63;;;;;;;;;;5042070;28;20179;-92
2023/10/10 06:19:39;;;;;;;0.60;0.60;;;;;;;;;;5039212;28;20180;-92
2023/10/10 06:22:08;;;;;;;0.60;0.60;;;;;;;;;;5041111;28;20199;-93
2023/10/10 06:24:35;;;;;;;0.60;0.60;;;;;;;;;;5037266;28;20203;-93
2023/10/10 06:27:01;;;;;;;0.53;0.53;;;;;;;;;;5020018;28;20176;-93
2023/10/10 06:29:34;;;;;;;0.60;0.60;;;;;;;;;;5038152;28;20238;-94
2023/10/10 06:32:00;;;;;;;0.50;0.50;;;;;;;;;;5037809;28;20219;-93
2023/10/10 06:34:34;;;;;;;0.40;0.40;;;;;;;;;;5041018;28;20176;-94
2023/10/10 06:37:07;;;;;;;0.50;0.50;;;;;;;;;;5038509;28;20271;-92
2023/10/10 06:39:55;;;;;;;0.40;0.40;;;;;;;;;;5018906;28;20180;-93
2023/10/10 06:42:27;;;;;;;0.43;0.43;;;;;;;;;;5037624;28;20196;-93
2023/10/10 06:44:54;;;;;;;0.40;0.40;;;;;;;;;;5037774;28;20204;-93
2023/10/10 06:47:21;;;;;;;0.50;0.50;;;;;;;;;;5039491;28;20180;-93
2023/10/10 06:49:56;;;;;;;0.40;0.40;;;;;;;;;;5038808;28;20203;-93
2023/10/10 06:52:23;;;;;;;0.40;0.40;;;;;;;;;;5040108;28;20191;-93
2023/10/10 06:54:56;;;;;;;0.50;0.50;;;;;;;;;;5034600;28;20184;-93
2023/10/10 06:57:35;;;;;;;0.50;0.50;;;;;;;;;;5037015;28;20264;-93
2023/10/10 07:00:09;;;;;;;0.50;0.50;;;;;;;;;;5020607;28;20205;-94
2023/10/10 07:02:47;;;;;;;0.43;0.43;;;;;;;;;;5039068;28;20218;-91
2023/10/10 07:05:15;;;;;;;0.40;0.40;;;;;;;;;;5037066;28;20259;-91
2023/10/10 07:07:42;;;;;;;0.40;0.40;;;;;;;;;;5036289;28;20183;-92
2023/10/10 07:10:09;;;;;;;0.30;0.30;;;;;;;;;;5035925;28;20203;-92
2023/10/10 07:12:38;;;;;;;0.30;0.30;;;;;;;;;;5036473;28;20208;-93
2023/10/10 07:15:06;;;;;;;0.40;0.40;;;;;;;;;;5036448;28;20183;-93
2023/10/10 07:17:38;;;;;;;0.50;0.50;;;;;;;;;;5036081;28;20267;-93
2023/10/10 07:22:34;;;;;;;0.40;0.40;;;;;;;;;;5035407;28;20188;-92
2023/10/10 07:25:31;;;;;;;0.40;0.40;;;;;;;;;;5035087;28;20218;-92
2023/10/10 07:27:56;;;;;;;0.40;0.40;;;;;;;;;;5034362;28;20183;-92
2023/10/10 07:30:33;;;;;;;0.40;0.40;;;;;;;;;;5034386;28;20608;-92
2023/10/10 07:33:03;;;;;;;0.40;0.40;;;;;;;;;;5040748;28;20203;-89
2023/10/10 07:35:35;;;;;;;0.40;0.40;;;;;;;;;;5041778;28;20168;-88
2023/10/10 07:38:01;;;;;;;0.30;0.30;;;;;;;;;;5058815;28;20164;-88
2023/10/10 07:40:31;;;;;;;0.30;0.30;;;;;;;;;;5026653;28;20564;-90
2023/10/10 07:43:03;;;;;;;0.40;0.40;;;;;;;;;;5034213;28;20242;-90
2023/10/10 07:45:43;;;;;;;0.37;0.37;;;;;;;;;;5033886;28;20227;-91
2023/10/10 07:50:36;;;;;;;0.30;0.30;;;;;;;;;;5032460;28;20696;-90
2023/10/10 07:53:04;;;;;;;0.33;0.33;;;;;;;;;;5032894;28;20577;-90
2023/10/10 07:55:52;;;;;;;0.40;0.40;;;;;;;;;;5032419;28;20259;-90
2023/10/10 07:58:23;;;;;;;0.30;0.30;;;;;;;;;;5033251;28;20223;-91
2023/10/10 08:00:49;;;;;;;0.40;0.40;;;;;;;;;;5015311;28;20176;-89
2023/10/10 08:03:21;;;;;;;0.47;0.47;;;;;;;;;;5032806;28;20175;-89
2023/10/10 08:05:50;;;;;;;0.40;0.40;;;;;;;;;;5015089;28;20204;-89
2023/10/10 08:08:17;;;;;;;0.20;0.20;;;;;;;;;;5032565;28;20200;-90
2023/10/10 08:10:49;;;;;;;0.40;0.40;;;;;;;;;;5032156;28;20209;-90
2023/10/10 08:13:15;;;;;;;0.37;0.37;;;;;;;;;;5032328;28;20180;-91
2023/10/10 08:21:08;;;;;;;0.43;0.43;;;;;;;;;;5032707;28;20230;-90
2023/10/10 08:23:36;;;;;;;0.50;0.50;;;;;;;;;;5014747;28;20199;-89
2023/10/10 08:26:02;;;;;;;0.47;0.47;;;;;;;;;;5014552;28;20212;-90
2023/10/10 08:28:28;;;;;;;0.40;0.40;;;;;;;;;;5034058;28;20202;-91
2023/10/10 08:30:54;;;;;;;0.50;0.50;;;;;;;;;;5033225;28;20179;-91
2023/10/10 08:33:20;;;;;;;0.40;0.40;;;;;;;;;;5032408;28;20688;-91
2023/10/10 08:35:46;;;;;;;0.43;0.43;;;;;;;;;;5032089;28;20204;-90
2023/10/10 08:38:19;;;;;;;0.50;0.50;;;;;;;;;;5032373;28;20176;-90
2023/10/10 08:40:56;;;;;;;0.40;0.40;;;;;;;;;;5014219;28;20172;-89
2023/10/10 08:43:22;;;;;;;0.50;0.50;;;;;;;;;;5032316;28;20175;-89
2023/10/10 08:45:54;;;;;;;0.60;0.60;;;;;;;;;;5031798;28;20596;-90
2023/10/10 08:48:26;;;;;;;0.50;0.50;;;;;;;;;;5032708;28;20693;-88
2023/10/10 08:50:55;;;;;;;0.40;0.40;;;;;;;;;;4977816;28;1075953;-88
2023/10/10 08:53:25;;;;;;;0.50;0.50;;;;;;;;;;5032990;28;20513;-88
2023/10/10 08:55:56;;;;;;;0.60;0.60;;;;;;;;;;5033095;28;20184;-89
2023/10/10 08:58:22;;;;;;;0.47;0.47;;;;;;;;;;5033118;28;20164;-90
2023/10/10 09:00:48;;;;;;;0.40;0.40;;;;;;;;;;5032735;28;20188;-87
2023/10/10 09:03:14;;;;;;;0.40;0.40;;;;;;;;;;5033155;28;20563;-87
2023/10/10 09:05:41;;;;;;;0.50;0.50;;;;;;;;;;5031872;28;20303;-87
2023/10/10 09:08:14;;;;;;;0.50;0.50;;;;;;;;;;5015641;28;20176;-91
2023/10/10 09:10:40;;;;;;;0.50;0.50;;;;;;;;;;5014766;28;20180;-89
2023/10/10 09:13:07;;;;;;;0.50;0.50;;;;;;;;;;5033185;28;20191;-88
2023/10/10 09:15:36;;;;;;;0.60;0.60;;;;;;;;;;5032937;28;20179;-90
2023/10/10 09:18:17;;;;;;;0.50;0.50;;;;;;;;;;5003275;28;20188;-89
2023/10/10 09:20:46;;;;;;;0.33;0.33;;;;;;;;;;5012362;28;20555;-88
2023/10/10 09:23:22;;;;;;;0.50;0.50;;;;;;;;;;5012755;28;20168;-90
2023/10/10 09:25:57;;;;;;;0.60;0.60;;;;;;;;;;4995221;28;20219;-89
2023/10/10 09:28:30;;;;;;;0.50;0.50;;;;;;;;;;5031760;28;20172;-89
2023/10/10 09:31:03;;;;;;;0.40;0.40;;;;;;;;;;5032353;28;20176;-88
2023/10/10 09:36:08;;;;;;;0.60;0.60;;;;;;;;;;5046340;28;20211;-86
2023/10/10 09:38:45;;;;;;;0.50;0.50;;;;;;;;;;5056142;28;20171;-85
2023/10/10 09:41:14;;;;;;;0.60;0.60;;;;;;;;;;5046863;28;20203;-89
2023/10/10 09:44:27;;;;;;;0.60;0.60;;;;;;;;;;5031734;28;20747;-88
2023/10/10 09:46:59;;;;;;;0.47;0.47;;;;;;;;;;5031682;28;20212;-88
2023/10/10 09:49:43;;;;;;;0.60;0.60;;;;;;;;;;5031554;28;20199;-88
2023/10/10 09:57:42;;;;;;;0.60;0.60;;;;;;;;;;5031489;28;20184;-88
2023/10/10 10:00:30;;;;;;;0.67;0.67;;;;;;;;;;5013769;28;20227;-88
2023/10/10 10:02:59;;;;;;;0.60;0.60;;;;;;;;;;5013810;28;20196;-89
2023/10/10 10:05:28;;;;;;;0.50;0.50;;;;;;;;;;5031851;28;20210;-88
2023/10/10 10:08:06;;;;;;;0.50;0.50;;;;;;;;;;5014084;28;20175;-90
2023/10/10 10:10:48;;;;;;;0.70;0.70;;;;;;;;;;5031475;28;20207;-90
2023/10/10 10:13:26;;;;;;;0.60;0.60;;;;;;;;;;5031562;28;20602;-89
2023/10/10 10:16:15;;;;;;;0.50;0.50;;;;;;;;;;5013722;28;20176;-88
2023/10/10 10:18:46;;;;;;;0.60;0.60;;;;;;;;;;5026922;28;20869;-89
2023/10/10 10:21:30;;;;;;;0.60;0.60;;;;;;;;;;5017859;28;20747;-89
2023/10/10 10:24:15;;;;;;;0.60;0.60;;;;;;;;;;5029330;28;20178;-87
2023/10/10 10:26:44;;;;;;;0.70;0.70;;;;;;;;;;5022492;28;20688;-88
2023/10/10 10:29:28;;;;;;;0.60;0.60;;;;;;;;;;5043015;28;20200;-87
2023/10/10 10:31:59;;;;;;;0.50;0.50;;;;;;;;;;5058652;28;20187;-84
2023/10/10 10:34:35;;;;;;;0.40;0.40;;;;;;;;;;5043395;28;20172;-87
2023/10/10 10:37:13;;;;;;;0.60;0.60;;;;;;;;;;5037517;28;20184;-87
2023/10/10 10:39:46;;;;;;;0.60;0.60;;;;;;;;;;5029467;28;20191;-88
2023/10/10 10:42:17;;;;;;;0.50;0.50;;;;;;;;;;5038031;28;20203;-89
2023/10/10 10:44:53;;;;;;;0.70;0.70;;;;;;;;;;5036510;28;20179;-89
2023/10/10 10:47:59;;;;;;;0.70;0.70;;;;;;;;;;5035853;28;20254;-89
2023/10/10 10:50:29;;;;;;;0.50;0.50;;;;;;;;;;5035811;28;20226;-89
2023/10/10 10:53:08;;;;;;;0.60;0.60;;;;;;;;;;5035904;28;20550;-91
2023/10/10 10:55:39;;;;;;;0.50;0.50;;;;;;;;;;5013880;28;20175;-88
2023/10/10 11:01:07;;;;;;;0.60;0.60;;;;;;;;;;5038912;28;20177;-86
2023/10/10 11:03:37;;;;;;;0.60;0.60;;;;;;;;;;5034903;28;20164;-88
2023/10/10 11:06:07;;;;;;;0.63;0.63;;;;;;;;;;5036777;28;20203;-85
2023/10/10 11:08:52;;;;;;;0.50;0.50;;;;;;;;;;5022078;28;20204;-87
2023/10/10 11:11:43;;;;;;;0.70;0.70;;;;;;;;;;5038392;28;20186;-84
2023/10/10 11:14:18;;;;;;;0.63;0.63;;;;;;;;;;5036473;28;20176;-86
2023/10/10 11:16:45;;;;;;;0.50;0.50;;;;;;;;;;5051314;28;20159;-85
2023/10/10 11:21:48;;;;;;;0.63;0.63;;;;;;;;;;5034729;28;20198;-88
2023/10/10 11:24:23;;;;;;;0.60;0.60;;;;;;;;;;5034027;28;20619;-87
2023/10/10 11:27:02;;;;;;;0.70;0.70;;;;;;;;;;5033290;28;20747;-87
2023/10/10 11:29:28;;;;;;;0.70;0.70;;;;;;;;;;5014013;28;20271;-87
2023/10/10 11:32:07;;;;;;;0.60;0.60;;;;;;;;;;5034768;28;20557;-88
2023/10/10 11:34:42;;;;;;;0.57;0.57;;;;;;;;;;5035039;28;20191;-85
2023/10/10 11:37:23;;;;;;;0.60;0.60;;;;;;;;;;5036772;28;20213;-85
2023/10/10 11:40:19;;;;;;;0.60;0.60;;;;;;;;;;5036542;28;20322;-85
2023/10/10 11:42:47;;;;;;;0.53;0.53;;;;;;;;;;5018793;28;20279;-84
2023/10/10 11:45:17;;;;;;;0.70;0.70;;;;;;;;;;5019315;28;20207;-83
2023/10/10 11:47:44;;;;;;;0.40;0.40;;;;;;;;;;5019042;28;20168;-85
2023/10/10 11:50:15;;;;;;;0.53;0.53;;;;;;;;;;5018301;28;20191;-86
2023/10/10 11:52:56;;;;;;;0.60;0.60;;;;;;;;;;5035934;28;20203;-83
2023/10/10 11:55:25;;;;;;;0.60;0.60;;;;;;;;;;5036965;28;20552;-86
2023/10/10 11:57:52;;;;;;;0.70;0.70;;;;;;;;;;5037217;28;20199;-85
2023/10/10 12:00:28;;;;;;;0.50;0.50;;;;;;;;;;5050224;28;20171;-86
2023/10/10 12:02:57;;;;;;;0.70;0.70;;;;;;;;;;5054381;28;20279;-81
2023/10/10 12:07:53;;;;;;;0.70;0.70;;;;;;;;;;5036091;28;20672;-85
2023/10/10 12:10:24;;;;;;;0.50;0.50;;;;;;;;;;5035117;28;20555;-86
2023/10/10 12:12:55;;;;;;;0.70;0.70;;;;;;;;;;5032632;28;20215;-85
2023/10/10 12:15:22;;;;;;;0.70;0.70;;;;;;;;;;5035179;28;20266;-84
2023/10/10 12:17:52;;;;;;;0.53;0.53;;;;;;;;;;5035284;28;20184;-86
2023/10/10 12:20:18;;;;;;;0.70;0.70;;;;;;;;;;5035207;28;20208;-85
2023/10/10 12:22:44;;;;;;;0.53;0.53;;;;;;;;;;5033800;28;20208;-85
2023/10/10 12:25:14;;;;;;;0.50;0.50;;;;;;;;;;5015948;28;20207;-86
2023/10/10 12:27:46;;;;;;;0.70;0.70;;;;;;;;;;5033492;28;20724;-86
2023/10/10 12:30:13;;;;;;;0.70;0.70;;;;;;;;;;5015535;28;20183;-86
2023/10/10 12:32:40;;;;;;;0.70;0.70;;;;;;;;;;5032976;28;20215;-85
2023/10/10 12:35:10;;;;;;;0.50;0.50;;;;;;;;;;5032773;28;20638;-86
2023/10/10 12:37:38;;;;;;;0.50;0.50;;;;;;;;;;5032747;28;20588;-86
2023/10/10 12:40:09;;;;;;;0.60;0.60;;;;;;;;;;5031732;28;20180;-85
2023/10/10 12:42:35;;;;;;;0.50;0.50;;;;;;;;;;5011063;28;20184;-87
2023/10/10 12:45:01;;;;;;;0.50;0.50;;;;;;;;;;5031099;28;20196;-84
2023/10/10 12:47:31;;;;;;;0.50;0.50;;;;;;;;;;5031607;28;20168;-84
2023/10/10 12:50:00;;;;;;;0.50;0.50;;;;;;;;;;5032109;28;20279;-85
2023/10/10 12:52:34;;;;;;;0.50;0.50;;;;;;;;;;5031684;28;20192;-86
2023/10/10 12:55:00;;;;;;;0.60;0.60;;;;;;;;;;5032349;28;20660;-84
2023/10/10 12:57:32;;;;;;;0.50;0.50;;;;;;;;;;5032271;28;20167;-87
2023/10/10 13:00:23;;;;;;;0.40;0.40;;;;;;;;;;5014061;28;20569;-87
2023/10/10 13:02:44;;;;;;;0.40;0.40;;;;;;;;;;5029648;28;20195;-88
2023/10/10 13:05:12;;;;;;;0.60;0.60;;;;;;;;;;5044975;28;20226;-88
2023/10/10 13:07:41;;;;;;;0.60;0.60;;;;;;;;;;5043847;28;20247;-87
2023/10/10 13:10:10;;;;;;;0.40;0.40;;;;;;;;;;5043072;28;20198;-86
2023/10/10 13:12:45;;;;;;;0.60;0.60;;;;;;;;;;5043779;28;20222;-88
2023/10/10 13:15:18;;;;;;;0.60;0.60;;;;;;;;;;5016728;28;20660;-89
2023/10/10 13:17:53;;;;;;;0.50;0.50;;;;;;;;;;5036501;28;20187;-88
2023/10/10 13:20:21;;;;;;;0.50;0.50;;;;;;;;;;5037720;28;20523;-88
2023/10/10 13:22:50;;;;;;;0.60;0.60;;;;;;;;;;5018916;28;20199;-87
2023/10/10 13:25:16;;;;;;;0.50;0.50;;;;;;;;;;5037323;28;20235;-87
2023/10/10 13:27:52;;;;;;;0.60;0.60;;;;;;;;;;5037337;28;20271;-87
2023/10/10 13:30:18;;;;;;;0.60;0.60;;;;;;;;;;5037445;28;20557;-87
2023/10/10 13:32:45;;;;;;;0.40;0.40;;;;;;;;;;5018666;28;20254;-87
2023/10/10 13:35:11;;;;;;;0.50;0.50;;;;;;;;;;5036951;28;20262;-88
2023/10/10 13:37:41;;;;;;;0.50;0.50;;;;;;;;;;5037401;28;20192;-87
2023/10/10 13:40:07;;;;;;;0.50;0.50;;;;;;;;;;5037395;28;20179;-87
2023/10/10 13:42:34;;;;;;;0.50;0.50;;;;;;;;;;5037284;28;20218;-86
2023/10/10 13:45:09;;;;;;;0.50;0.50;;;;;;;;;;5037666;28;20207;-87
2023/10/10 13:47:36;;;;;;;0.50;0.50;;;;;;;;;;5028653;28;20232;-84
2023/10/10 13:52:47;;;;;;;0.60;0.60;;;;;;;;;;5059216;28;20186;-85
2023/10/10 13:55:13;;;;;;;0.40;0.40;;;;;;;;;;5061024;28;20199;-82
2023/10/10 13:57:39;;;;;;;0.30;0.30;;;;;;;;;;5043719;28;20168;-84
2023/10/10 14:00:19;;;;;;;0.30;0.30;;;;;;;;;;5048554;28;20178;-87
2023/10/10 14:02:46;;;;;;;0.40;0.40;;;;;;;;;;5042482;28;20202;-87
2023/10/10 14:05:19;;;;;;;0.30;0.30;;;;;;;;;;5024231;28;20207;-87
2023/10/10 14:07:46;;;;;;;0.30;0.30;;;;;;;;;;5042554;28;20187;-87
2023/10/10 14:10:12;;;;;;;0.40;0.40;;;;;;;;;;5034590;28;20183;-83
2023/10/10 14:12:44;;;;;;;0.30;0.30;;;;;;;;;;5060329;28;20196;-84
2023/10/10 14:15:11;;;;;;;0.50;0.50;;;;;;;;;;5060103;28;20581;-85
2023/10/10 14:17:37;;;;;;;0.43;0.43;;;;;;;;;;5058007;28;20179;-87
2023/10/10 14:20:19;;;;;;;0.40;0.40;;;;;;;;;;5040821;28;20184;-87
2023/10/10 14:22:45;;;;;;;0.50;0.50;;;;;;;;;;5041100;28;20230;-88
2023/10/10 14:25:14;;;;;;;0.40;0.40;;;;;;;;;;5042107;28;20212;-88
2023/10/10 14:27:43;;;;;;;0.40;0.40;;;;;;;;;;5039887;28;20230;-88
2023/10/10 14:30:20;;;;;;;0.40;0.40;;;;;;;;;;5035965;28;20260;-85
2023/10/10 14:32:49;;;;;;;0.50;0.50;;;;;;;;;;5037915;28;20222;-87
2023/10/10 14:35:15;;;;;;;0.40;0.40;;;;;;;;;;5034846;28;20187;-88
2023/10/10 14:37:41;;;;;;;0.50;0.50;;;;;;;;;;5040681;28;20672;-87
2023/10/10 14:40:09;;;;;;;0.40;0.40;;;;;;;;;;5034464;28;20169;-87
2023/10/10 14:42:35;;;;;;;0.50;0.50;;;;;;;;;;5020266;28;20200;-85
2023/10/10 14:45:06;;;;;;;0.40;0.40;;;;;;;;;;5019561;28;20572;-86
2023/10/10 14:47:35;;;;;;;0.50;0.50;;;;;;;;;;5026669;28;20226;-85
2023/10/10 14:50:10;;;;;;;0.50;0.50;;;;;;;;;;5015039;28;20188;-86
2023/10/10 14:52:40;;;;;;;0.40;0.40;;;;;;;;;;5001615;28;20196;-85
2023/10/10 14:55:23;;;;;;;0.30;0.30;;;;;;;;;;5015574;28;20177;-87
2023/10/10 14:57:49;;;;;;;0.40;0.40;;;;;;;;;;4997560;28;20196;-87
2023/10/10 15:00:18;;;;;;;0.47;0.47;;;;;;;;;;5014774;28;20552;-86
2023/10/10 15:02:44;;;;;;;0.40;0.40;;;;;;;;;;5013573;28;20279;-86
2023/10/10 15:05:11;;;;;;;0.40;0.40;;;;;;;;;;5015103;28;20218;-88
2023/10/10 15:07:41;;;;;;;0.40;0.40;;;;;;;;;;4998826;28;20594;-87
2023/10/10 15:10:08;;;;;;;0.40;0.40;;;;;;;;;;5002469;28;20176;-89
2023/10/10 15:12:34;;;;;;;0.50;0.50;;;;;;;;;;5015234;28;20200;-87
2023/10/10 15:15:00;;;;;;;0.50;0.50;;;;;;;;;;5015458;28;20173;-86
2023/10/10 15:17:27;;;;;;;0.40;0.40;;;;;;;;;;5014568;28;20173;-88
2023/10/10 15:19:53;;;;;;;0.50;0.50;;;;;;;;;;4996304;28;20267;-84
2023/10/10 15:22:19;;;;;;;0.40;0.40;;;;;;;;;;4995199;28;20198;-84
2023/10/10 15:24:52;;;;;;;0.37;0.37;;;;;;;;;;5013371;28;20721;-85
2023/10/10 15:27:19;;;;;;;0.37;0.37;;;;;;;;;;4995485;28;20176;-87
2023/10/10 15:29:45;;;;;;;0.30;0.30;;;;;;;;;;5014176;28;20654;-85
2023/10/10 15:32:14;;;;;;;0.50;0.50;;;;;;;;;;5014611;28;20205;-84
2023/10/10 15:34:40;;;;;;;0.50;0.50;;;;;;;;;;5014604;28;20169;-85
2023/10/10 15:37:14;;;;;;;0.40;0.40;;;;;;;;;;5002144;28;20866;-84
2023/10/10 15:39:41;;;;;;;0.37;0.37;;;;;;;;;;5019609;28;20180;-83
2023/10/10 15:42:07;;;;;;;0.37;0.37;;;;;;;;;;4997561;28;20254;-85
2023/10/10 15:44:33;;;;;;;0.40;0.40;;;;;;;;;;5014632;28;20181;-84
2023/10/10 15:46:59;;;;;;;0.40;0.40;;;;;;;;;;5013240;28;20209;-83
2023/10/10 15:49:25;;;;;;;0.33;0.33;;;;;;;;;;5031951;28;20216;-83
2023/10/10 15:51:56;;;;;;;0.40;0.40;;;;;;;;;;5015797;28;20193;-84
2023/10/10 15:54:28;;;;;;;0.50;0.50;;;;;;;;;;5015832;28;20185;-84
2023/10/10 15:56:54;;;;;;;0.50;0.50;;;;;;;;;;5012848;28;20196;-87
2023/10/10 15:59:20;;;;;;;0.40;0.40;;;;;;;;;;5015879;28;20183;-86
2023/10/10 16:01:46;;;;;;;0.40;0.40;;;;;;;;;;5015038;28;20216;-87
2023/10/10 16:04:13;;;;;;;0.30;0.30;;;;;;;;;;5014786;28;20358;-87
2023/10/10 16:06:41;;;;;;;0.40;0.40;;;;;;;;;;5014302;28;20208;-84
2023/10/10 16:09:12;;;;;;;0.40;0.40;;;;;;;;;;5027030;28;20183;-84
2023/10/10 16:11:43;;;;;;;0.40;0.40;;;;;;;;;;5005257;28;20282;-86
2023/10/10 16:14:14;;;;;;;0.30;0.30;;;;;;;;;;5008757;28;20175;-88
2023/10/10 16:16:47;;;;;;;0.30;0.30;;;;;;;;;;5034009;28;20199;-84
2023/10/10 16:19:13;;;;;;;0.30;0.30;;;;;;;;;;5016985;28;20176;-87
2023/10/10 16:21:42;;;;;;;0.30;0.30;;;;;;;;;;5013429;28;20201;-86
2023/10/10 16:24:15;;;;;;;0.30;0.30;;;;;;;;;;5013665;28;20171;-85
2023/10/10 16:26:44;;;;;;;0.40;0.40;;;;;;;;;;5015195;28;20235;-86
2023/10/10 16:29:11;;;;;;;0.30;0.30;;;;;;;;;;5023347;28;20176;-86
2023/10/10 16:31:37;;;;;;;0.37;0.37;;;;;;;;;;5006299;28;20200;-85
2023/10/10 16:34:04;;;;;;;0.30;0.30;;;;;;;;;;5018356;28;20177;-85
2023/10/10 16:36:30;;;;;;;0.30;0.30;;;;;;;;;;5013327;28;20256;-85
2023/10/10 16:38:57;;;;;;;0.40;0.40;;;;;;;;;;5020343;28;20237;-86
2023/10/10 16:41:23;;;;;;;0.50;0.50;;;;;;;;;;5032919;28;20564;-84
2023/10/10 16:43:49;;;;;;;0.30;0.30;;;;;;;;;;5026264;28;21099;-82
2023/10/10 16:46:15;;;;;;;0.30;0.30;;;;;;;;;;5028213;28;20748;-84
2023/10/10 16:48:45;;;;;;;0.40;0.40;;;;;;;;;;5029814;28;20180;-84
2023/10/10 16:51:13;;;;;;;0.30;0.30;;;;;;;;;;5027001;28;20196;-85
2023/10/10 16:53:39;;;;;;;0.30;0.30;;;;;;;;;;5028195;28;20179;-86
2023/10/10 16:56:08;;;;;;;0.30;0.30;;;;;;;;;;5014719;28;20235;-88
2023/10/10 16:58:38;;;;;;;0.40;0.40;;;;;;;;;;5014686;28;20172;-85
2023/10/10 17:01:04;;;;;;;0.30;0.30;;;;;;;;;;5025908;28;20200;-85
2023/10/10 17:03:33;;;;;;;0.30;0.30;;;;;;;;;;5007703;28;20225;-86
2023/10/10 17:06:05;;;;;;;0.40;0.40;;;;;;;;;;5021160;28;20200;-85
2023/10/10 17:08:32;;;;;;;0.40;0.40;;;;;;;;;;5021590;28;20552;-85
2023/10/10 17:11:01;;;;;;;0.50;0.50;;;;;;;;;;5036417;28;20230;-86
2023/10/10 17:13:29;;;;;;;0.33;0.33;;;;;;;;;;5039606;28;20190;-84
2023/10/10 17:16:00;;;;;;;0.40;0.40;;;;;;;;;;5039582;28;20205;-84
2023/10/10 17:18:26;;;;;;;0.40;0.40;;;;;;;;;;5049838;28;20178;-84
2023/10/10 17:21:00;;;;;;;0.40;0.40;;;;;;;;;;5035541;28;20179;-88
2023/10/10 17:23:26;;;;;;;0.50;0.50;;;;;;;;;;5034719;28;20183;-90
2023/10/10 17:25:55;;;;;;;0.30;0.30;;;;;;;;;;5040306;28;20207;-91
2023/10/10 17:28:21;;;;;;;0.40;0.40;;;;;;;;;;5021153;28;20300;-88
2023/10/10 17:30:52;;;;;;;0.40;0.40;;;;;;;;;;5016969;28;20263;-89
2023/10/10 17:33:18;;;;;;;0.40;0.40;;;;;;;;;;4999567;28;20196;-88
2023/10/10 17:35:44;;;;;;;0.30;0.30;;;;;;;;;;5016460;28;20192;-88
2023/10/10 17:38:10;;;;;;;0.40;0.40;;;;;;;;;;5001540;28;20183;-86
2023/10/10 17:40:39;;;;;;;0.30;0.30;;;;;;;;;;5014573;28;20207;-87
2023/10/10 17:43:09;;;;;;;0.40;0.40;;;;;;;;;;5032704;28;20200;-88
2023/10/10 17:45:35;;;;;;;0.40;0.40;;;;;;;;;;5034519;28;20204;-89
2023/10/10 17:48:05;;;;;;;0.30;0.30;;;;;;;;;;5023494;28;20180;-89